createdAt,value
2017-08-25T00:01:02.771Z,100383.86
2017-08-25T00:04:04.157Z,100391.05
2017-08-25T00:07:05.832Z,100387.90
2017-08-25T00:10:07.122Z,100383.44
2017-08-25T00:13:08.467Z,100386.73
2017-08-25T00:16:09.806Z,100383.50
2017-08-25T00:19:11.141Z,100376.09
2017-08-25T00:22:12.454Z,100383.00
2017-08-25T00:25:13.834Z,100384.10
2017-08-25T00:28:15.193Z,100387.98
2017-08-25T00:31:16.552Z,100387.38
2017-08-25T00:34:17.938Z,100388.06
2017-08-25T00:37:19.294Z,100385.58
2017-08-25T00:40:20.653Z,100386.41
2017-08-25T00:43:21.979Z,100380.86
2017-08-25T00:46:23.392Z,100381.98
2017-08-25T00:49:24.746Z,100383.70
2017-08-25T00:52:26.106Z,100385.30
2017-08-25T00:55:27.585Z,100383.70
2017-08-25T00:58:28.949Z,100389.47
2017-08-25T01:01:30.285Z,100389.37
2017-08-25T01:04:31.672Z,100390.35
2017-08-25T01:07:33.041Z,100395.03
2017-08-25T01:10:34.421Z,100398.73
2017-08-25T01:13:35.805Z,100393.88
2017-08-25T01:16:37.174Z,100391.38
2017-08-25T01:19:38.606Z,100393.11
2017-08-25T01:22:40.299Z,100405.70
2017-08-25T01:25:41.656Z,100394.59
2017-08-25T01:28:43.023Z,100397.17
2017-08-25T01:31:44.409Z,100405.73
2017-08-25T01:34:45.845Z,100407.37
2017-08-25T01:37:47.190Z,100401.17
2017-08-25T01:40:48.605Z,100406.17
2017-08-25T01:43:50.099Z,100398.84
2017-08-25T01:46:51.462Z,100399.03
2017-08-25T01:49:52.847Z,100392.56
2017-08-25T01:52:54.193Z,100398.16
2017-08-25T01:55:55.597Z,100389.44
2017-08-25T01:58:56.950Z,100395.57
2017-08-25T02:01:58.329Z,100397.14
2017-08-25T02:04:59.752Z,100397.43
2017-08-25T02:08:01.106Z,100406.72
2017-08-25T02:11:02.475Z,100390.83
2017-08-25T02:14:03.806Z,100395.77
2017-08-25T02:17:05.194Z,100388.58
2017-08-25T02:20:06.558Z,100402.58
2017-08-25T02:23:07.954Z,100402.08
2017-08-25T02:26:09.314Z,100393.44
2017-08-25T02:29:10.734Z,100392.71
2017-08-25T02:32:12.174Z,100390.75
2017-08-25T02:35:13.476Z,100391.52
2017-08-25T02:38:14.843Z,100394.99
2017-08-25T02:41:16.177Z,100399.42
2017-08-25T02:44:17.554Z,100385.75
2017-08-25T02:47:18.868Z,100391.08
2017-08-25T02:50:20.197Z,100389.73
2017-08-25T02:53:21.658Z,100389.55
2017-08-25T02:56:22.956Z,100390.25
2017-08-25T02:59:24.293Z,100378.96
2017-08-25T03:02:25.623Z,100370.51
2017-08-25T03:05:26.954Z,100380.52
2017-08-25T03:08:28.284Z,100383.55
2017-08-25T03:11:29.655Z,100389.87
2017-08-25T03:14:30.977Z,100390.61
2017-08-25T03:17:32.307Z,100388.36
2017-08-25T03:20:33.652Z,100387.78
2017-08-25T03:23:34.962Z,100389.70
2017-08-25T03:26:36.311Z,100379.14
2017-08-25T03:29:37.690Z,100377.23
2017-08-25T03:32:39.038Z,100378.35
2017-08-25T03:35:40.365Z,100375.08
2017-08-25T03:38:41.693Z,100377.43
2017-08-25T03:41:43.018Z,100386.89
2017-08-25T03:44:44.330Z,100375.32
2017-08-25T03:47:45.683Z,100385.14
2017-08-25T03:50:46.971Z,100390.08
2017-08-25T03:53:48.317Z,100390.38
2017-08-25T03:56:49.643Z,100388.88
2017-08-25T03:59:51.008Z,100387.90
2017-08-25T04:02:52.291Z,100388.44
2017-08-25T04:05:53.656Z,100394.41
2017-08-25T04:08:55.178Z,100396.84
2017-08-25T04:11:56.488Z,100409.52
2017-08-25T04:14:57.878Z,100407.80
2017-08-25T04:17:59.223Z,100411.59
2017-08-25T04:21:00.557Z,100390.89
2017-08-25T04:24:01.906Z,100386.13
2017-08-25T04:27:04.808Z,100397.89
2017-08-25T04:30:06.372Z,100397.38
2017-08-25T04:33:07.712Z,100395.91
2017-08-25T04:36:09.128Z,100405.67
2017-08-25T04:39:10.466Z,100421.30
2017-08-25T04:42:11.853Z,100417.58
2017-08-25T04:45:13.253Z,100420.52
2017-08-25T04:48:14.650Z,100419.20
2017-08-25T04:51:16.023Z,100404.79
2017-08-25T04:54:17.371Z,100413.52
2017-08-25T04:57:18.725Z,100416.17
2017-08-25T05:00:20.038Z,100409.26
2017-08-25T05:03:21.382Z,100407.88
2017-08-25T05:06:22.695Z,100425.22
2017-08-25T05:09:24.047Z,100415.53
2017-08-25T05:12:25.369Z,100422.60
2017-08-25T05:15:26.757Z,100426.84
2017-08-25T05:18:28.357Z,100424.23
2017-08-25T05:21:29.657Z,100426.87
2017-08-25T05:24:31.022Z,100422.11
2017-08-25T05:27:32.327Z,100425.06
2017-08-25T05:30:33.688Z,100407.20
2017-08-25T05:33:34.999Z,100408.61
2017-08-25T05:36:36.379Z,100415.41
2017-08-25T05:39:37.728Z,100418.39
2017-08-25T05:42:39.063Z,100410.55
2017-08-25T05:45:40.409Z,100425.69
2017-08-25T05:48:41.723Z,100424.66
2017-08-25T05:51:43.103Z,100430.37
2017-08-25T05:54:44.423Z,100434.02
2017-08-25T05:57:45.800Z,100432.44
2017-08-25T06:00:47.144Z,100430.98
2017-08-25T06:03:48.487Z,100426.40
2017-08-25T06:06:49.841Z,100431.23
2017-08-25T06:09:51.189Z,100411.77
2017-08-25T06:12:52.556Z,100418.12
2017-08-25T06:15:53.877Z,100433.41
2017-08-25T06:18:55.261Z,100425.20
2017-08-25T06:21:56.611Z,100428.78
2017-08-25T06:24:57.965Z,100437.92
2017-08-25T06:27:59.269Z,100441.71
2017-08-25T06:31:00.636Z,100440.41
2017-08-25T06:34:01.994Z,100446.50
2017-08-25T06:37:03.341Z,100446.98
2017-08-25T06:40:04.719Z,100454.11
2017-08-25T06:43:06.040Z,100461.22
2017-08-25T06:46:07.386Z,100460.16
2017-08-25T06:49:08.705Z,100460.20
2017-08-25T06:52:10.063Z,100449.39
2017-08-25T06:55:11.408Z,100456.83
2017-08-25T06:58:12.810Z,100464.96
2017-08-25T07:01:14.158Z,100460.09
2017-08-25T07:04:15.494Z,100451.64
2017-08-25T07:07:16.828Z,100465.66
2017-08-25T07:10:18.203Z,100472.08
2017-08-25T07:13:19.515Z,100484.53
2017-08-25T07:16:20.905Z,100477.95
2017-08-25T07:19:22.235Z,100478.94
2017-08-25T07:22:23.605Z,100488.92
2017-08-25T07:25:24.957Z,100490.93
2017-08-25T07:28:26.277Z,100502.92
2017-08-25T07:31:27.618Z,100490.42
2017-08-25T07:34:28.967Z,100492.50
2017-08-25T07:37:30.302Z,100485.30
2017-08-25T07:40:31.638Z,100485.08
2017-08-25T07:43:32.995Z,100490.70
2017-08-25T07:46:34.426Z,100480.00
2017-08-25T07:49:35.706Z,100494.01
2017-08-25T07:52:37.101Z,100494.52
2017-08-25T07:55:38.409Z,100488.58
2017-08-25T07:58:39.742Z,100488.06
2017-08-25T08:01:41.046Z,100486.09
2017-08-25T08:04:42.409Z,100489.08
2017-08-25T08:07:43.985Z,100486.45
2017-08-25T08:10:45.313Z,100491.69
2017-08-25T08:13:46.650Z,100477.95
2017-08-25T08:16:47.986Z,100482.98
2017-08-25T08:19:49.337Z,100478.66
2017-08-25T08:22:50.643Z,100495.38
2017-08-25T08:25:52.005Z,100495.05
2017-08-25T08:28:53.327Z,100496.02
2017-08-25T08:31:54.686Z,100485.64
2017-08-25T08:34:56.048Z,100489.16
2017-08-25T08:37:57.382Z,100486.50
2017-08-25T08:40:58.711Z,100477.50
2017-08-25T08:44:00.030Z,100475.72
2017-08-25T08:47:02.103Z,100471.22
2017-08-25T08:50:03.410Z,100473.73
2017-08-25T08:53:04.762Z,100475.22
2017-08-25T08:56:06.502Z,100476.19
2017-08-25T08:59:07.831Z,100476.84
2017-08-25T09:02:09.177Z,100477.72
2017-08-25T09:05:10.522Z,100477.53
2017-08-25T09:08:11.861Z,100477.41
2017-08-25T09:11:13.201Z,100475.62
2017-08-25T09:14:14.547Z,100476.95
2017-08-25T09:17:15.919Z,100474.02
2017-08-25T09:20:17.241Z,100478.66
2017-08-25T09:23:18.611Z,100477.95
2017-08-25T09:26:19.956Z,100470.98
2017-08-25T09:29:21.335Z,100467.77
2017-08-25T09:32:22.664Z,100475.11
2017-08-25T09:35:24.012Z,100468.19
2017-08-25T09:38:25.333Z,100462.18
2017-08-25T09:41:26.677Z,100459.92
2017-08-25T09:44:28.118Z,100467.04
2017-08-25T09:47:29.415Z,100465.30
2017-08-25T09:50:30.754Z,100461.59
2017-08-25T09:53:32.078Z,100459.47
2017-08-25T09:56:33.457Z,100456.44
2017-08-25T09:59:34.817Z,100451.84
2017-08-25T10:02:36.156Z,100448.27
2017-08-25T10:05:37.471Z,100448.93
2017-08-25T10:08:39.632Z,100456.81
2017-08-25T10:11:41.463Z,100460.52
2017-08-25T10:14:43.627Z,100455.64
2017-08-25T10:17:45.059Z,100452.12
2017-08-25T10:20:46.414Z,100446.77
2017-08-25T10:23:47.791Z,100456.02
2017-08-25T10:26:49.135Z,100452.88
2017-08-25T10:29:50.494Z,100448.02
2017-08-25T10:32:51.835Z,100444.86
2017-08-25T10:36:11.562Z,100446.27
2017-08-25T10:39:31.480Z,100444.98
2017-08-25T10:42:51.227Z,100444.94
2017-08-25T10:45:52.593Z,100436.12
2017-08-25T10:48:53.902Z,100444.94
2017-08-25T10:51:56.477Z,100441.75
2017-08-25T10:54:57.787Z,100444.25
2017-08-25T10:57:59.141Z,100441.26
2017-08-25T11:01:00.513Z,100431.61
2017-08-25T11:04:01.844Z,100425.84
2017-08-25T11:07:03.206Z,100424.11
2017-08-25T11:10:04.503Z,100413.33
2017-08-25T11:13:05.862Z,100416.52
2017-08-25T11:16:07.154Z,100405.89
2017-08-25T11:19:08.554Z,100408.03
2017-08-25T11:22:09.869Z,100409.55
2017-08-25T11:25:11.234Z,100404.63
2017-08-25T11:28:12.941Z,100405.59
2017-08-25T11:31:14.228Z,100409.17
2017-08-25T11:34:15.777Z,100409.57
2017-08-25T11:37:17.172Z,100407.59
2017-08-25T11:40:18.510Z,100400.80
2017-08-25T11:43:20.005Z,100394.73
2017-08-25T11:46:21.366Z,100391.80
2017-08-25T11:49:22.922Z,100391.09
2017-08-25T11:52:24.281Z,100383.28
2017-08-25T11:55:25.637Z,100383.35
2017-08-25T11:58:26.958Z,100390.03
2017-08-25T12:01:28.306Z,100396.53
2017-08-25T12:04:29.630Z,100396.47
2017-08-25T12:07:30.974Z,100393.22
2017-08-25T12:10:32.327Z,100393.95
2017-08-25T12:13:33.670Z,100392.97
2017-08-25T12:16:35.014Z,100382.80
2017-08-25T12:19:36.373Z,100381.02
2017-08-25T12:22:37.715Z,100374.16
2017-08-25T12:25:39.046Z,100382.20
2017-08-25T12:28:40.429Z,100383.48
2017-08-25T12:31:41.718Z,100390.06
2017-08-25T12:34:43.054Z,100382.27
2017-08-25T12:37:44.726Z,100385.22
2017-08-25T12:40:46.030Z,100390.33
2017-08-25T12:43:48.102Z,100385.84
2017-08-25T12:46:49.419Z,100387.75
2017-08-25T12:49:50.751Z,100381.64
2017-08-25T12:52:52.113Z,100377.02
2017-08-25T12:55:53.458Z,100378.15
2017-08-25T12:58:54.767Z,100381.14
2017-08-25T13:01:56.086Z,100380.47
2017-08-25T13:04:57.459Z,100372.33
2017-08-25T13:07:58.775Z,100374.44
2017-08-25T13:11:00.142Z,100375.39
2017-08-25T13:14:02.221Z,100369.31
2017-08-25T13:17:03.619Z,100354.41
2017-08-25T13:20:04.971Z,100344.01
2017-08-25T13:23:06.334Z,100349.86
2017-08-25T13:26:07.669Z,100349.11
2017-08-25T13:29:09.034Z,100350.69
2017-08-25T13:32:10.389Z,100344.33
2017-08-25T13:35:11.681Z,100345.28
2017-08-25T13:38:13.013Z,100343.72
2017-08-25T13:41:14.340Z,100336.59
2017-08-25T13:44:15.676Z,100345.83
2017-08-25T13:47:16.980Z,100340.56
2017-08-25T13:50:18.325Z,100333.44
2017-08-25T13:53:19.665Z,100335.99
2017-08-25T13:56:21.002Z,100332.73
2017-08-25T13:59:22.346Z,100323.71
2017-08-25T14:02:23.685Z,100320.30
2017-08-25T14:05:25.037Z,100319.83
2017-08-25T14:08:26.357Z,100310.51
2017-08-25T14:11:27.785Z,100304.41
2017-08-25T14:14:29.161Z,100315.31
2017-08-25T14:17:30.508Z,100314.63
2017-08-25T14:20:31.874Z,100313.43
2017-08-25T14:23:33.241Z,100321.33
2017-08-25T14:26:34.613Z,100311.59
2017-08-25T14:29:35.907Z,100310.50
2017-08-25T14:32:37.279Z,100313.08
2017-08-25T14:35:38.594Z,100311.11
2017-08-25T14:38:39.937Z,100302.30
2017-08-25T14:41:41.237Z,100307.84
2017-08-25T14:44:42.575Z,100294.63
2017-08-25T14:47:44.043Z,100279.39
2017-08-25T14:50:45.387Z,100289.77
2017-08-25T14:53:46.725Z,100288.37
2017-08-25T14:56:48.055Z,100281.61
2017-08-25T14:59:49.741Z,100278.02
2017-08-25T15:02:51.085Z,100283.42
2017-08-25T15:05:52.497Z,100277.80
2017-08-25T15:08:54.133Z,100285.95
2017-08-25T15:11:56.188Z,100284.34
2017-08-25T15:14:57.716Z,100287.16
2017-08-25T15:17:59.068Z,100275.55
2017-08-25T15:21:00.442Z,100273.94
2017-08-25T15:24:01.749Z,100265.58
2017-08-25T15:27:03.114Z,100263.52
2017-08-25T15:30:04.430Z,100250.08
2017-08-25T15:33:05.750Z,100258.64
2017-08-25T15:36:07.477Z,100244.09
2017-08-25T15:39:08.803Z,100246.08
2017-08-25T15:42:10.172Z,100249.97
2017-08-25T15:45:11.529Z,100248.40
2017-08-25T15:48:12.884Z,100247.41
2017-08-25T15:51:14.178Z,100240.08
2017-08-25T15:54:15.519Z,100238.37
2017-08-25T15:57:16.847Z,100243.50
2017-08-25T16:00:18.188Z,100229.95
2017-08-25T16:03:19.633Z,100217.48
2017-08-25T16:06:20.996Z,100218.30
2017-08-25T16:09:22.352Z,100231.11
2017-08-25T16:12:23.647Z,100230.39
2017-08-25T16:15:24.970Z,100217.79
2017-08-25T16:18:26.326Z,100224.64
2017-08-25T16:21:27.728Z,100225.03
2017-08-25T16:24:29.087Z,100222.75
2017-08-25T16:27:30.435Z,100218.54
2017-08-25T16:30:31.975Z,100215.99
2017-08-25T16:33:33.289Z,100225.95
2017-08-25T16:36:34.734Z,100224.05
2017-08-25T16:39:36.069Z,100229.04
2017-08-25T16:42:37.466Z,100229.05
2017-08-25T16:45:38.755Z,100225.84
2017-08-25T16:48:40.095Z,100229.98
2017-08-25T16:51:41.418Z,100230.84
2017-08-25T16:54:42.758Z,100222.06
2017-08-25T16:57:44.212Z,100218.92
2017-08-25T17:00:45.966Z,100217.02
2017-08-25T17:03:47.692Z,100213.98
2017-08-25T17:06:49.021Z,100212.09
2017-08-25T17:09:50.366Z,100214.36
2017-08-25T17:12:52.436Z,100219.52
2017-08-25T17:15:53.929Z,100215.52
2017-08-25T17:18:57.373Z,100215.49
2017-08-25T17:21:59.707Z,100221.14
2017-08-25T17:25:01.225Z,100215.33
2017-08-25T17:28:03.945Z,100220.32
2017-08-25T17:31:06.552Z,100206.70
2017-08-25T17:34:09.006Z,100212.92
2017-08-25T17:37:10.429Z,100214.88
2017-08-25T17:40:13.054Z,100220.45
2017-08-25T17:43:14.964Z,100221.38
2017-08-25T17:46:19.228Z,100231.36
2017-08-25T17:49:20.698Z,100231.48
2017-08-25T17:52:22.479Z,100229.39
2017-08-25T17:55:25.254Z,100228.09
2017-08-25T17:58:26.712Z,100229.42
2017-08-25T18:01:28.042Z,100232.26
2017-08-25T18:04:30.050Z,100220.15
2017-08-25T18:07:31.962Z,100214.14
2017-08-25T18:10:34.413Z,100206.17
2017-08-25T18:13:35.735Z,100207.35
2017-08-25T18:16:37.177Z,100220.81
2017-08-25T18:19:38.544Z,100224.11
2017-08-25T18:22:42.370Z,100205.80
2017-08-25T18:25:43.873Z,100212.04
2017-08-25T18:28:46.272Z,100208.59
2017-08-25T18:31:49.641Z,100215.54
2017-08-25T18:34:52.242Z,100214.56
2017-08-25T18:37:55.156Z,100226.23
2017-08-25T18:40:57.006Z,100227.05
2017-08-25T18:43:58.529Z,100221.03
2017-08-25T18:46:59.933Z,100228.39
2017-08-25T18:50:01.912Z,100218.31
2017-08-25T18:53:05.171Z,100225.41
2017-08-25T18:56:07.326Z,100230.92
2017-08-25T18:59:11.058Z,100225.89
2017-08-25T19:02:12.748Z,100219.87
2017-08-25T19:05:15.793Z,100225.19
2017-08-25T19:08:18.378Z,100231.94
2017-08-25T19:11:20.366Z,100230.97
2017-08-25T19:14:21.775Z,100238.63
2017-08-25T19:17:24.430Z,100231.48
2017-08-25T19:20:25.871Z,100230.33
2017-08-25T19:23:27.259Z,100230.05
2017-08-25T19:26:29.291Z,100237.98
2017-08-25T19:29:31.807Z,100233.75
2017-08-25T19:32:33.604Z,100230.30
2017-08-25T19:35:35.114Z,100228.36
2017-08-25T19:38:36.836Z,100226.14
2017-08-25T19:41:39.192Z,100221.98
2017-08-25T19:44:41.813Z,100229.80
2017-08-25T19:47:44.053Z,100226.87
2017-08-25T19:50:46.048Z,100226.82
2017-08-25T19:53:48.355Z,100226.05
2017-08-25T19:56:50.044Z,100218.59
2017-08-25T19:59:52.736Z,100218.59
2017-08-25T20:02:55.708Z,100225.23
2017-08-25T20:05:57.699Z,100229.09
2017-08-25T20:08:59.674Z,100221.58
2017-08-25T20:12:01.180Z,100227.46
2017-08-25T20:15:03.305Z,100214.30
2017-08-25T20:18:04.821Z,100214.54
2017-08-25T20:21:07.453Z,100220.33
2017-08-25T20:24:09.554Z,100213.23
2017-08-25T20:27:10.945Z,100211.21
2017-08-25T20:30:14.784Z,100206.38
2017-08-25T20:33:23.066Z,100204.27
2017-08-25T20:36:24.505Z,100205.56
2017-08-25T20:39:25.949Z,100208.98
2017-08-25T20:42:28.011Z,100213.77
2017-08-25T20:48:37.862Z,100198.72
2017-08-25T20:51:39.213Z,100200.25
2017-08-25T20:54:40.553Z,100198.04
2017-08-25T20:57:41.915Z,100197.80
2017-08-25T21:00:43.236Z,100196.84
2017-08-25T21:03:44.562Z,100189.02
2017-08-25T21:06:45.897Z,100193.48
2017-08-25T21:09:47.277Z,100197.72
2017-08-25T21:12:48.899Z,100191.22
2017-08-25T21:15:50.248Z,100200.22
2017-08-25T21:18:51.727Z,100197.84
2017-08-25T21:21:53.032Z,100198.73
2017-08-25T21:24:54.370Z,100184.34
2017-08-25T21:27:55.676Z,100181.40
2017-08-25T21:30:57.026Z,100176.26
2017-08-25T21:33:58.349Z,100184.46
2017-08-25T21:37:00.085Z,100182.00
2017-08-25T21:40:01.400Z,100189.78
2017-08-25T21:43:02.734Z,100194.28
2017-08-25T21:46:04.856Z,100196.83
2017-08-25T21:49:06.642Z,100186.72
2017-08-25T21:52:08.018Z,100182.42
2017-08-25T21:55:09.327Z,100180.64
2017-08-25T21:58:10.995Z,100188.42
2017-08-25T22:01:12.309Z,100184.09
2017-08-25T22:04:13.662Z,100189.56
2017-08-25T22:07:14.992Z,100176.75
2017-08-25T22:10:16.349Z,100179.37
2017-08-25T22:13:17.767Z,100190.53
2017-08-25T22:16:19.097Z,100186.41
2017-08-25T22:19:20.556Z,100180.93
2017-08-25T22:22:21.858Z,100170.59
2017-08-25T22:25:23.220Z,100162.52
2017-08-25T22:28:24.520Z,100155.37
2017-08-25T22:31:25.906Z,100155.47
2017-08-25T22:34:27.203Z,100147.60
2017-08-25T22:37:28.536Z,100139.86
2017-08-25T22:43:38.114Z,100142.09
2017-08-25T22:46:39.470Z,100157.22
2017-08-25T22:49:40.781Z,100159.37
2017-08-25T22:52:42.163Z,100173.70
2017-08-25T22:55:43.490Z,100171.66
2017-08-25T22:58:44.825Z,100164.34
2017-08-25T23:01:47.030Z,100165.45
2017-08-25T23:04:48.375Z,100158.17
2017-08-25T23:07:49.719Z,100147.50
2017-08-25T23:10:51.042Z,100143.39
2017-08-25T23:13:52.359Z,100134.18
2017-08-25T23:16:53.659Z,100143.48
2017-08-25T23:19:55.015Z,100144.06
2017-08-25T23:22:56.629Z,100146.34
2017-08-25T23:25:57.932Z,100144.20
2017-08-25T23:28:59.275Z,100137.59
2017-08-25T23:32:00.585Z,100142.45
2017-08-25T23:35:01.913Z,100142.55
2017-08-25T23:38:03.211Z,100138.60
2017-08-25T23:41:04.546Z,100122.73
2017-08-25T23:44:05.847Z,100119.58
2017-08-25T23:47:07.217Z,100119.74
2017-08-25T23:50:08.669Z,100117.91
2017-08-25T23:53:09.980Z,100124.51
2017-08-25T23:56:11.441Z,100122.73
2017-08-25T23:59:12.757Z,100119.89
